WetterOnline ( https://www.wetteronline.de )

Wetter aktuell Bremerhaven

Aktuelles Wetter: Bremerhaven (11m)

6-stündlich | Neueste Meldungen
Ortszeit Temperatur Wetter
Sa, 13.04. 2:00 11.5° C wolkig
Fr, 12.04. 20:00 13.1° C bewölkt
Fr, 12.04. 14:00 16.4° C bewölkt
Fr, 12.04. 8:00 12.9° C bedeckt
Fr, 12.04. 2:00 12.7° C bedeckt
Do, 11.04. 20:00 12.9° C Sprühregen
Do, 11.04. 14:00 13.2° C bedeckt
Do, 11.04. 8:00 11.1° C leichter Regen
Ortszeit Temperatur Wetter
Sa, 13.04. 5:30 12.4° C wolkig
Sa, 13.04. 5:20 12.4° C wolkig
Sa, 13.04. 5:10 12.3° C bewölkt
Sa, 13.04. 5:00 12.2° C bewölkt
Sa, 13.04. 4:50 12.2° C bewölkt
Sa, 13.04. 4:40 12.0° C bedeckt
Sa, 13.04. 4:30 11.6° C wolkig
Sa, 13.04. 4:00 11.3° C wolkig
Sa, 13.04. 3:30 11.5° C wolkig
Sa, 13.04. 3:00 11.9° C wolkig
Sa, 13.04. 2:30 11.0° C wolkig
Ortszeit Relative Feuchte Sichtweite
Sa, 13.04. 2:00 88% 27 km
Fr, 12.04. 20:00 88% 19 km
Fr, 12.04. 14:00 70% 35 km
Fr, 12.04. 8:00 96% 6 km
Fr, 12.04. 2:00 97% 10 km
Do, 11.04. 20:00 99% 9 km
Do, 11.04. 14:00 85% 29 km
Do, 11.04. 8:00 80% 28 km
Ortszeit Relative Feuchte Sichtweite
Sa, 13.04. 5:30 89% 26 km
Sa, 13.04. 5:20 89% -
Sa, 13.04. 5:10 90% -
Sa, 13.04. 5:00 89% 30 km
Sa, 13.04. 4:50 89% -
Sa, 13.04. 4:40 91% -
Sa, 13.04. 4:30 91% 30 km
Sa, 13.04. 4:00 91% 27 km
Sa, 13.04. 3:30 91% 27 km
Sa, 13.04. 3:00 86% 30 km
Sa, 13.04. 2:30 92% 24 km
Ortszeit Niederschlagsmenge Niederschlagsart
Sa, 13.04. 2:00 0.0 l/m2 in 6 Std. -
Fr, 12.04. 20:00 0.1 l/m2 in 12 Std. -
Fr, 12.04. 14:00 0.1 l/m2 in 6 Std. Sprühregen
Fr, 12.04. 8:00 0.1 l/m2 in 12 Std. Sprühregen
Fr, 12.04. 2:00 0.1 l/m2 in 6 Std. Sprühregen
Do, 11.04. 20:00 1 l/m2 in 12 Std. Regen
Do, 11.04. 14:00 1 l/m2 in 6 Std. Regen
Do, 11.04. 8:00 0.1 l/m2 in 12 Std. Regen
Ortszeit Niederschlagsmenge Niederschlagsart
Sa, 13.04. 5:30 0.0 l/m2 in 30 Min -
Sa, 13.04. 5:20 keine Meldung -
Sa, 13.04. 5:10 keine Meldung -
Sa, 13.04. 5:00 0.0 l/m2 in 1 Std. -
Sa, 13.04. 4:50 keine Meldung -
Sa, 13.04. 4:40 keine Meldung -
Sa, 13.04. 4:30 0.0 l/m2 in 30 Min -
Sa, 13.04. 4:00 0.0 l/m2 in 1 Std. -
Sa, 13.04. 3:30 0.0 l/m2 in 30 Min -
Sa, 13.04. 3:00 0.0 l/m2 in 1 Std. -
Sa, 13.04. 2:30 0.0 l/m2 in 30 Min -
Ortszeit Stärke Spitze Richtung
km/h Bft. km/h Grad Sektor
Sa, 13.04. 2:00 14 3 22 210° SW
Fr, 12.04. 20:00 9 2 48 240° SW
Fr, 12.04. 14:00 32 5 47 230° SW
Fr, 12.04. 8:00 24 4 30 210° SW
Fr, 12.04. 2:00 18 3 29 220° SW
Do, 11.04. 20:00 26 4 37 230° SW
Do, 11.04. 14:00 28 4 43 230° SW
Do, 11.04. 8:00 33 5 46 210° SW
Ortszeit Stärke Spitze Richtung
km/h Bft. km/h Grad Sektor
Sa, 13.04. 5:30 25 4 36 230° SW
Sa, 13.04. 5:20 25 4 - 230° SW
Sa, 13.04. 5:10 25 4 - 230° SW
Sa, 13.04. 5:00 22 4 29 220° SW
Sa, 13.04. 4:50 22 4 - 220° SW
Sa, 13.04. 4:40 19 3 - 220° SW
Sa, 13.04. 4:30 19 3 22 210° SW
Sa, 13.04. 4:00 17 3 20 200° S
Sa, 13.04. 3:30 15 3 20 210° SW
Sa, 13.04. 3:00 18 3 22 200° S
Sa, 13.04. 2:30 11 2 18 210° SW
Ortszeit Untergrenze Bedeckung Gattung
total tief tief mittel hoch
Sa, 13.04. 2:00 8700 m 8/8 0/8 - - -
Fr, 12.04. 20:00 3600 m 8/8 7/8 - - -
Fr, 12.04. 14:00 3600 m 7/8 7/8 - - -
Fr, 12.04. 8:00 300 m 8/8 8/8 - - -
Fr, 12.04. 2:00 630 m 8/8 8/8 - - -
Do, 11.04. 20:00 180 m 7/8 7/8 - - -
Do, 11.04. 14:00 450 m 8/8 8/8 - - -
Do, 11.04. 8:00 750 m 8/8 8/8 - - -
Ortszeit Bedeckungsgrad in Achtel und Wolkenuntergrenze
Sa, 13.04. 5:30 3(7200m) 7(9000m)
Sa, 13.04. 5:20 3(7200m) 7(9000m)
Sa, 13.04. 5:10 7
Sa, 13.04. 5:00 7(6900m) 8(7800m) 8(9000m)
Sa, 13.04. 4:50 7(6900m) 8(7800m) 8(9000m)
Sa, 13.04. 4:40 8
Sa, 13.04. 4:30 8(7200m) 8(9000m) 8(10500m)
Sa, 13.04. 4:00 5(7200m) 8(8400m)
Sa, 13.04. 3:30 8(9000m)
Sa, 13.04. 3:00 5(8700m) 8(9000m) 8(10500m)
Sa, 13.04. 2:30 8(8400m)
Ortszeit Luftdruck NN (hPa) Tendenz (hPa in 3 Std.)
Sa, 13.04. 2:00 1025 - 0,8
Fr, 12.04. 20:00 1026 - 1,1
Fr, 12.04. 14:00 1027 - 0,8
Fr, 12.04. 8:00 1028 - 0,6
Fr, 12.04. 2:00 1031 - 0,3
Do, 11.04. 20:00 1030 + 0,7
Do, 11.04. 14:00 1029 + 1,4
Do, 11.04. 8:00 1026 - 0,3
Ortszeit Luftdruck NN (hPa) Tendenz (hPa in 3 Std.)
Sa, 13.04. 5:30 1023 - 1,1
Sa, 13.04. 5:20 1023 keine Meldung
Sa, 13.04. 5:10 1024 keine Meldung
Sa, 13.04. 5:00 1023 - 1,4
Sa, 13.04. 4:50 1023 keine Meldung
Sa, 13.04. 4:40 1023 keine Meldung
Sa, 13.04. 4:30 1024 - 1,6
Sa, 13.04. 4:00 1024 - 1,5
Sa, 13.04. 3:30 1024 - 1,6
Sa, 13.04. 3:00 1024 - 1,5
Sa, 13.04. 2:30 1024 - 1,1
Ortszeit Schneehöhe (cm)
Sa, 13.04. 2:00 0
Fr, 12.04. 20:00 0
Fr, 12.04. 14:00 0
Fr, 12.04. 8:00 0
Fr, 12.04. 2:00 0
Do, 11.04. 20:00 0
Do, 11.04. 14:00 0
Do, 11.04. 8:00 0
Ortszeit Schneehöhe (cm)
Sa, 13.04. 5:30 0
Sa, 13.04. 5:20 0
Sa, 13.04. 5:10 -
Sa, 13.04. 5:00 0
Sa, 13.04. 4:50 0
Sa, 13.04. 4:40 -
Sa, 13.04. 4:30 0
Sa, 13.04. 4:00 0
Sa, 13.04. 3:30 0
Sa, 13.04. 3:00 0
Sa, 13.04. 2:30 0
Link zu dieser Seite / Seite empfehlen

Das Wetter in ...